Windsor Airport
CYQG : now visible

Airfield :











YOU CAN JOIN US ON...

 
LOGIN :

Register | Disclaimer

   EN    FR    IT 

 









Legend :    VFR   Marginal VFR   IFR   Intensive IFR   Very Intensive IFR
Visi :
Ceiling :
>= 8 km
>= 3000ft
5 to 8 km
1000 to 3000 ft
1500m to 5 km
500 to 1000 ft
800 to 1500m
200 to 500 ft
< 800m
< 200 ft
Symbols :   Thunderstorms  Fog  Heavy snow  Heavy precipitations  Wind > 20 kt






- Airport Elevation : 622 ft
- IATA code : YQG


CYQG - Windsor

CURRENT METAR :
  • 260539Z AUTO 05015G20KT 9SM BKN090 OVC110 M01/M04 A2986 RMK SLP124

EXPIRED METARs :
  • 260529Z AUTO 06016G22KT 9SM -SN FEW070 OVC088 M01/M04 A2986 RMK PRESFR SLP125
  • 260500Z AUTO 06016G21KT 9SM BKN070 OVC089 M01/M04 A2988 RMK PRESFR SLP132
  • 260400Z AUTO 05012G18KT 9SM BKN040 OVC090 M01/M04 A2992 RMK SLP144
  • 260326Z AUTO 05014KT 9SM BKN040 OVC090 M01/M04 A2994 RMK SLP149
  • 260300Z AUTO 05015G20KT 9SM -SN BKN038 OVC085 M01/M04 A2994 RMK SLP150

TAF TAF CYQG
Valid from the 26 at 06:00 until the 27 at 06:00 UTC


260538Z 2606/2706 06013G23KT P6SM SCT020 OVC030
TEMPO 2606/2607 5SM -SN BKN020
PROB30 2606/2607 3SM -SN -FZDZ BR
FM260700 06015G25KT 3SM -SN OVC020
TEMPO 2607/2609 6SM -SN OVC030
FM260900 07015G25KT 1SM -SN VV007
TEMPO 2609/2615 3SM -SN OVC010
PROB30 2609/2615 2SM -PLSN VV005
FM261500 03015G25KT 21/2SM -SN OVC008
TEMPO 2615/2620 6SM -SN OVC012
PROB30 2615/2618 2SM -FZDZ BR
FM262000 34010G20KT 4SM -SN SCT008 OVC010
PROB30 2620/2706 5SM -SN -FZDZ BR BKN008 RMK FCST BASED ON AUTO OBS. NXT FCST BY 261200Z
CZYZ FIR / North America



MET'MAP, your aeronautical weather chart ! - Copyright ORBIFLY December 2007 - Disclaimer

ORBIFLY MET'MAP TEAM :

Programming & Development : Alexandra Zaïnal
Concept & original design : Baudouin d'Aumeries
Assistance for programming : Marc-Olivier Méhu
Technical & hardware support : Manuel Goepfert

Contact : metmap@orbifly.com




SOURCES & CREDITS :

   NOAA       Earth
Advisory